Time;durP1;ratioP1;P1;durP2;ratioP2;P2;SDS_P1;SDS_P2;PMS_P1;PMS_P2;Temp;Humidity;BMP_temperature;BMP_pressure;BME280_temperature;BME280_humidity;BME280_pressure;Samples;Min_cycle;Max_cycle;Signal;HPM_P1;HPM_P2
2022/11/29 00:01:04;;;;;;;84.93;49.63;;;;;;;1.73;100.00;99872.34;5091961;28;20040;-78
2022/11/29 00:03:29;;;;;;;79.65;48.10;;;;;;;1.63;100.00;99862.97;5091519;28;20020;-78
2022/11/29 00:05:55;;;;;;;72.70;44.70;;;;;;;1.63;100.00;99863.84;5091726;28;20024;-78
2022/11/29 00:08:22;;;;;;;83.18;46.00;;;;;;;1.64;100.00;99862.97;5091218;28;20371;-78
2022/11/29 00:10:49;;;;;;;78.30;45.08;;;;;;;1.61;100.00;99857.88;5091688;28;20020;-78
2022/11/29 00:13:16;;;;;;;80.00;45.40;;;;;;;1.54;100.00;99848.50;5092304;28;20107;-78
2022/11/29 00:15:41;;;;;;;75.40;50.67;;;;;;;1.56;100.00;99857.06;5095761;28;20614;-78
2022/11/29 00:18:06;;;;;;;73.60;44.88;;;;;;;1.59;100.00;99859.59;5095638;28;20102;-78
2022/11/29 00:20:33;;;;;;;76.53;46.00;;;;;;;1.57;100.00;99861.31;5095677;28;20360;-78
2022/11/29 00:22:59;;;;;;;84.80;48.47;;;;;;;1.54;100.00;99857.91;5095743;28;20031;-78
2022/11/29 00:25:25;;;;;;;73.35;46.17;;;;;;;1.51;100.00;99856.22;5095650;28;20031;-78
2022/11/29 00:27:51;;;;;;;72.25;43.83;;;;;;;1.54;100.00;99858.75;5095700;28;20020;-78
2022/11/29 00:30:18;;;;;;;81.22;49.40;;;;;;;1.54;100.00;99868.19;5095538;28;20147;-78
2022/11/29 00:32:43;;;;;;;74.55;47.80;;;;;;;1.47;100.00;99855.38;5095499;28;20020;-78
2022/11/29 00:35:09;;;;;;;75.20;44.15;;;;;;;1.45;100.00;99857.13;5095543;28;20030;-78
2022/11/29 00:37:34;;;;;;;74.82;45.10;;;;;;;1.46;100.00;99858.81;5095060;28;20351;-78
2022/11/29 00:39:59;;;;;;;78.00;46.30;;;;;;;1.48;100.00;99857.09;5095222;28;20024;-78
2022/11/29 00:42:25;;;;;;;71.00;44.38;;;;;;;1.49;100.00;99855.38;5095290;28;20020;-78
2022/11/29 00:44:50;;;;;;;74.78;44.65;;;;;;;1.45;100.00;99858.84;5095175;28;20016;-78
2022/11/29 00:47:15;;;;;;;79.88;48.20;;;;;;;1.43;100.00;99856.28;5076660;28;20030;-78
2022/11/29 00:49:41;;;;;;;77.05;45.28;;;;;;;1.48;100.00;99864.81;5095310;28;20055;-78
2022/11/29 00:52:06;;;;;;;70.57;46.75;;;;;;;1.42;100.00;99849.44;5095192;28;20050;-78
2022/11/29 00:54:32;;;;;;;72.35;42.78;;;;;;;1.40;100.00;99850.31;5094895;28;20103;-78
2022/11/29 00:56:57;;;;;;;66.00;41.40;;;;;;;1.45;100.00;99849.41;5095101;28;20047;-78
2022/11/29 00:59:22;;;;;;;73.20;45.55;;;;;;;1.43;100.00;99853.72;5094794;28;20031;-78
2022/11/29 01:01:48;;;;;;;71.68;43.47;;;;;;;1.44;100.00;99845.16;5094567;28;20487;-78
2022/11/29 01:04:13;;;;;;;65.90;41.30;;;;;;;1.42;100.00;99854.56;5094866;28;20013;-78
2022/11/29 01:06:39;;;;;;;79.40;46.60;;;;;;;1.40;100.00;99848.59;5094751;28;20363;-78
2022/11/29 01:09:04;;;;;;;63.05;39.10;;;;;;;1.46;100.00;99850.25;5094819;28;20024;-78
2022/11/29 01:11:30;;;;;;;77.57;46.42;;;;;;;1.45;100.00;99846.84;5094483;28;20031;-78
2022/11/29 01:13:59;;;;;;;75.03;46.28;;;;;;;1.46;100.00;99850.25;5094622;28;20027;-78
2022/11/29 01:16:26;;;;;;;72.43;44.22;;;;;;;1.39;100.00;99839.19;5094300;28;20455;-78
2022/11/29 01:18:52;;;;;;;75.57;46.70;;;;;;;1.45;100.00;99861.41;5094788;28;20024;-78
2022/11/29 01:21:20;;;;;;;81.07;49.13;;;;;;;1.43;100.00;99855.41;5094434;28;20348;-78
2022/11/29 01:23:47;;;;;;;75.72;47.25;;;;;;;1.35;100.00;99841.75;5076367;28;20404;-78
2022/11/29 01:26:15;;;;;;;68.85;42.05;;;;;;;1.49;100.00;99856.22;5093831;28;20455;-78
2022/11/29 01:28:41;;;;;;;67.50;42.88;;;;;;;1.49;100.00;99856.22;5093893;28;20108;-78
2022/11/29 01:31:09;;;;;;;68.82;42.33;;;;;;;1.46;100.00;99850.25;5094151;28;20371;-78
2022/11/29 01:33:35;;;;;;;67.53;42.08;;;;;;;1.55;100.00;99863.03;5094154;28;20020;-78
2022/11/29 01:36:02;;;;;;;73.68;46.33;;;;;;;1.54;100.00;99863.91;5094496;28;20482;-78
2022/11/29 01:38:27;;;;;;;69.55;42.28;;;;;;;1.50;100.00;99859.66;5094185;28;20019;-78
2022/11/29 01:41:03;;;;;;;68.32;42.97;;;;;;;1.37;100.00;99835.78;5094144;28;20370;-78
2022/11/29 01:43:29;;;;;;;71.10;44.05;;;;;;;1.52;100.00;99869.91;5093936;28;20463;-78
2022/11/29 01:45:55;;;;;;;67.10;40.42;;;;;;;1.47;100.00;99850.25;5093948;28;20439;-78
2022/11/29 01:48:25;;;;;;;70.18;41.38;;;;;;;1.45;100.00;99839.16;5093916;28;20077;-78
2022/11/29 01:50:52;;;;;;;69.57;41.13;;;;;;;1.53;100.00;99864.78;5094342;28;20040;-78
2022/11/29 01:53:19;;;;;;;72.07;43.35;;;;;;;1.54;100.00;99863.91;5093912;28;20019;-78
2022/11/29 01:55:51;;;;;;;55.60;36.42;;;;;;;1.50;100.00;99844.25;5093899;28;20078;-78
2022/11/29 01:58:16;;;;;;;65.72;40.25;;;;;;;1.55;100.00;99857.91;5094037;28;20020;-78
2022/11/29 02:00:42;;;;;;;62.65;39.95;;;;;;;1.53;100.00;99857.06;5093526;28;20040;-78
2022/11/29 02:03:14;;;;;;;70.43;43.05;;;;;;;1.51;100.00;99848.50;5093921;28;20070;-78
2022/11/29 02:05:47;;;;;;;64.45;40.47;;;;;;;1.50;100.00;99850.22;5093512;28;20385;-78
2022/11/29 02:08:15;;;;;;;66.82;39.97;;;;;;;1.55;100.00;99855.31;5093656;28;20047;-78
2022/11/29 02:11:09;;;;;;;60.53;36.92;;;;;;;1.57;100.00;99858.75;5093254;28;20066;-78
2022/11/29 02:14:21;;;;;;;63.60;39.00;;;;;;;1.55;100.00;99851.91;5093434;28;20074;-78
2022/11/29 02:17:02;;;;;;;69.63;40.28;;;;;;;1.46;100.00;99847.69;5093701;28;20065;-78
2022/11/29 02:19:46;;;;;;;71.05;44.47;;;;;;;1.54;100.00;99863.91;5093682;28;20024;-78
2022/11/29 02:22:23;;;;;;;64.40;40.25;;;;;;;1.49;100.00;99852.81;5093425;28;20024;-78
2022/11/29 02:24:51;;;;;;;63.88;40.70;;;;;;;1.54;100.00;99857.91;5093380;28;20027;-78
2022/11/29 02:27:38;;;;;;;67.93;41.22;;;;;;;1.54;100.00;99855.34;5093128;28;20049;-78
2022/11/29 02:30:16;;;;;;;64.45;40.00;;;;;;;1.53;100.00;99861.34;5093088;28;20367;-78
2022/11/29 02:33:05;;;;;;;71.55;42.75;;;;;;;1.53;100.00;99862.19;5093038;28;20368;-78
2022/11/29 02:35:59;;;;;;;68.60;43.70;;;;;;;1.51;100.00;99853.66;5092859;28;20098;-78
2022/11/29 02:38:34;;;;;;;62.97;38.55;;;;;;;1.57;100.00;99863.03;5092468;28;20035;-78
2022/11/29 02:41:31;;;;;;;66.07;40.40;;;;;;;1.54;100.00;99858.75;5092842;28;20541;-78
2022/11/29 02:44:44;;;;;;;63.78;38.47;;;;;;;1.57;100.00;99865.59;5093104;28;20016;-78
2022/11/29 02:47:23;;;;;;;65.10;41.05;;;;;;;1.59;100.00;99863.88;5010660;28;20469;-78
2022/11/29 02:50:07;;;;;;;66.30;40.28;;;;;;;1.58;100.00;99867.31;5010697;28;20037;-78
2022/11/29 02:53:10;;;;;;;66.03;40.88;;;;;;;1.57;100.00;99869.03;5010754;28;20076;-78
2022/11/29 02:55:44;;;;;;;62.97;39.05;;;;;;;1.59;100.00;99877.56;5010296;28;20485;-78
2022/11/29 02:58:15;;;;;;;65.25;40.83;;;;;;;1.59;100.00;99876.69;5010345;28;20033;-78
2022/11/29 03:00:51;;;;;;;64.50;39.33;;;;;;;1.54;100.00;99873.31;5009957;28;20054;-76
2022/11/29 03:03:58;;;;;;;65.50;39.72;;;;;;;1.61;100.00;99880.13;5010342;28;20398;-77
2022/11/29 03:06:38;;;;;;;65.60;43.15;;;;;;;1.62;100.00;99879.25;4951849;29;20081;-76
2022/11/29 03:09:09;;;;;;;72.47;42.10;;;;;;;1.62;100.00;99881.81;4951879;29;20051;-76
2022/11/29 03:11:46;;;;;;;66.55;37.47;;;;;;;1.62;100.00;99886.97;4951645;29;20402;-77
2022/11/29 03:14:27;;;;;;;61.38;38.08;;;;;;;1.64;100.00;99880.94;4951929;29;20038;-77
2022/11/29 03:17:04;;;;;;;64.55;37.92;;;;;;;1.67;100.00;99887.78;4951786;29;20043;-76
2022/11/29 03:19:53;;;;;;;63.10;39.25;;;;;;;1.56;100.00;99866.44;4951630;29;20035;-77
2022/11/29 03:22:27;;;;;;;54.33;32.67;;;;;;;1.72;100.00;99889.44;4969481;28;20084;-76
2022/11/29 03:25:16;;;;;;;68.82;36.33;;;;;;;1.67;100.00;99882.63;5010106;28;20350;-77
2022/11/29 03:27:58;;;;;;;60.88;38.20;;;;;;;1.70;100.00;99883.47;5009821;28;20088;-76
2022/11/29 03:30:23;;;;;;;67.97;40.17;;;;;;;1.68;100.00;99892.88;5009952;28;20044;-76
2022/11/29 03:33:18;;;;;;;66.10;40.58;;;;;;;1.72;100.00;99889.44;5009590;28;20113;-77
2022/11/29 03:35:50;;;;;;;63.90;38.92;;;;;;;1.71;100.00;99894.59;5005756;28;20034;-77
2022/11/29 03:38:28;;;;;;;65.88;38.85;;;;;;;1.70;100.00;99898.03;5010211;28;20030;-76
2022/11/29 03:41:03;;;;;;;59.35;35.45;;;;;;;1.61;100.00;99877.56;5009862;28;20124;-76
2022/11/29 03:43:48;;;;;;;62.28;37.53;;;;;;;1.70;100.00;99895.47;5063493;28;20042;-76
2022/11/29 03:46:46;;;;;;;64.95;40.22;;;;;;;1.71;100.00;99894.59;4990063;28;20073;-77
2022/11/29 03:49:26;;;;;;;51.78;31.85;;;;;;;1.70;100.00;99893.75;4994586;28;20069;-76
2022/11/29 03:52:10;;;;;;;61.22;36.60;;;;;;;1.68;100.00;99895.47;4996944;28;20426;-77
2022/11/29 03:54:45;;;;;;;53.50;34.08;;;;;;;1.69;100.00;99889.47;4996414;28;20034;-76
2022/11/29 03:57:16;;;;;;;60.05;35.97;;;;;;;1.62;100.00;99877.53;4996534;28;20031;-77
2022/11/29 03:59:44;;;;;;;63.10;38.90;;;;;;;1.67;100.00;99890.34;4996458;28;20030;-77
2022/11/29 04:02:24;;;;;;;61.53;38.25;;;;;;;1.62;100.00;99884.41;4996525;28;20636;-76
2022/11/29 04:04:59;;;;;;;63.53;39.60;;;;;;;1.69;100.00;99893.78;4996192;28;20089;-77
2022/11/29 04:07:33;;;;;;;56.35;35.20;;;;;;;1.66;100.00;99893.78;4996158;28;20118;-76
2022/11/29 04:10:20;;;;;;;57.88;36.33;;;;;;;1.70;100.00;99898.03;4996399;28;20482;-77
2022/11/29 04:13:07;;;;;;;57.45;34.95;;;;;;;1.68;100.00;99895.47;4996174;28;20022;-77
2022/11/29 04:16:01;;;;;;;63.53;38.67;;;;;;;1.66;100.00;99898.91;4995980;28;20026;-77
2022/11/29 04:18:38;;;;;;;52.88;33.30;;;;;;;1.67;100.00;99895.47;4996369;28;20394;-77
2022/11/29 04:21:31;;;;;;;59.03;36.20;;;;;;;1.67;100.00;99898.03;4996238;28;20038;-76
2022/11/29 04:24:17;;;;;;;63.95;39.53;;;;;;;1.60;100.00;99886.97;5071803;28;20056;-76
2022/11/29 04:27:33;;;;;;;56.50;32.70;;;;;;;1.68;100.00;99898.03;5098123;28;20027;-77
2022/11/29 04:30:07;;;;;;;56.55;34.55;;;;;;;1.62;100.00;99894.66;5015941;28;20037;-76
2022/11/29 04:32:59;;;;;;;62.75;36.72;;;;;;;1.69;100.00;99906.59;5015553;28;20385;-76
2022/11/29 04:35:49;;;;;;;55.85;32.92;;;;;;;1.70;100.00;99910.88;5015830;28;20100;-77
2022/11/29 04:38:34;;;;;;;57.60;34.25;;;;;;;1.62;100.00;99904.94;5015781;28;20022;-77
2022/11/29 04:41:12;;;;;;;56.90;34.78;;;;;;;1.71;100.00;99920.28;5015782;28;20026;-76
2022/11/29 04:43:55;;;;;;;50.13;32.28;;;;;;;1.72;100.00;99916.84;5015569;28;20092;-77
2022/11/29 04:46:54;;;;;;;61.92;36.53;;;;;;;1.73;100.00;99921.13;5015756;28;20249;-76
2022/11/29 04:49:31;;;;;;;53.88;35.60;;;;;;;1.73;100.00;99921.97;5015687;28;20026;-76
2022/11/29 04:52:20;;;;;;;64.72;38.60;;;;;;;1.66;100.00;99902.34;5015696;28;20173;-76
2022/11/29 04:54:55;;;;;;;65.60;40.08;;;;;;;1.72;100.00;99912.53;4998942;28;20416;-77
2022/11/29 04:57:46;;;;;;;59.03;38.13;;;;;;;1.77;100.00;99916.81;5015619;28;20491;-76
2022/11/29 05:00:23;;;;;;;59.38;35.95;;;;;;;1.78;100.00;99927.09;5001177;28;20428;-77
2022/11/29 05:02:55;;;;;;;61.45;37.78;;;;;;;1.81;100.00;99918.50;5032186;28;20077;-77
2022/11/29 05:05:33;;;;;;;57.33;35.70;;;;;;;1.80;100.00;99925.34;5049008;28;20032;-77
2022/11/29 05:08:13;;;;;;;63.83;39.33;;;;;;;1.78;100.00;99921.94;5074675;28;20044;-77
2022/11/29 05:11:14;;;;;;;52.97;33.88;;;;;;;1.79;100.00;99928.78;5074392;28;20028;-77
2022/11/29 05:14:15;;;;;;;58.70;34.88;;;;;;;1.81;100.00;99931.31;5074240;28;20336;-77
2022/11/29 05:16:57;;;;;;;57.40;37.00;;;;;;;1.80;100.00;99924.50;5074375;28;20020;-76
2022/11/29 05:19:48;;;;;;;56.65;34.55;;;;;;;1.83;100.00;99927.91;5074518;28;20110;-77
2022/11/29 05:22:23;;;;;;;58.30;35.28;;;;;;;1.82;100.00;99938.19;5031613;28;20072;-76
2022/11/29 05:24:52;;;;;;;52.15;32.95;;;;;;;1.83;100.00;99940.75;5031680;28;20029;-77
2022/11/29 05:27:30;;;;;;;53.60;34.42;;;;;;;1.69;100.00;99914.31;5031706;28;20033;-77
2022/11/29 05:29:58;;;;;;;52.38;33.53;;;;;;;1.83;100.00;99939.91;5031462;28;20176;-77
2022/11/29 05:33:01;;;;;;;54.13;36.88;;;;;;;1.83;100.00;99947.59;5031847;28;20404;-76
2022/11/29 05:35:44;;;;;;;55.08;36.17;;;;;;;1.80;100.00;99953.59;5031725;28;20036;-77
2022/11/29 05:38:34;;;;;;;57.42;35.25;;;;;;;1.73;100.00;99941.69;5031785;28;20409;-76
2022/11/29 05:41:32;;;;;;;69.15;39.90;;;;;;;1.74;100.00;99946.78;5031536;28;20033;-77
2022/11/29 05:44:18;;;;;;;60.05;37.80;;;;;;;1.74;100.00;99967.34;4972775;28;20046;-77
2022/11/29 05:46:49;;;;;;;65.57;42.50;;;;;;;1.73;100.00;99955.38;4972439;28;20038;-77
2022/11/29 05:49:58;;;;;;;58.55;35.80;;;;;;;1.72;100.00;99958.78;4972635;28;20042;-76
2022/11/29 05:52:44;;;;;;;74.05;44.47;;;;;;;1.70;100.00;99959.66;4972639;28;20034;-76
2022/11/29 05:55:12;;;;;;;55.28;33.75;;;;;;;1.72;100.00;99968.19;4972662;28;20074;-77
2022/11/29 05:58:05;;;;;;;58.10;36.10;;;;;;;1.71;100.00;99969.91;4972491;28;20026;-76
2022/11/29 06:00:46;;;;;;;56.50;37.53;;;;;;;1.72;100.00;99970.75;4972371;28;20080;-77
2022/11/29 06:03:26;;;;;;;61.95;39.30;;;;;;;1.71;100.00;99969.06;4972476;28;20023;-77
2022/11/29 06:06:06;;;;;;;67.53;41.90;;;;;;;1.70;100.00;99972.50;4972134;28;20085;-77
2022/11/29 06:08:57;;;;;;;67.87;41.03;;;;;;;1.70;100.00;99975.06;4972351;28;20035;-77
2022/11/29 06:11:34;;;;;;;56.47;35.90;;;;;;;1.71;100.00;99976.75;4972198;28;20266;-77
2022/11/29 06:14:07;;;;;;;62.60;37.80;;;;;;;1.73;100.00;99982.75;4972056;28;20097;-77
2022/11/29 06:16:55;;;;;;;61.42;37.45;;;;;;;1.75;100.00;99981.03;4972112;28;20022;-77
2022/11/29 06:19:41;;;;;;;62.88;39.05;;;;;;;1.77;100.00;99993.84;4979663;28;20030;-77
2022/11/29 06:22:35;;;;;;;57.90;36.40;;;;;;;1.72;100.00;99971.59;5073235;28;20166;-77
2022/11/29 06:25:26;;;;;;;58.85;37.40;;;;;;;1.81;100.00;99985.25;5073255;28;20024;-77
2022/11/29 06:28:09;;;;;;;57.23;36.33;;;;;;;1.81;100.00;99982.69;5072902;28;20500;-76
2022/11/29 06:31:04;;;;;;;62.38;39.00;;;;;;;1.79;100.00;99990.41;5073017;28;20044;-77
2022/11/29 06:33:57;;;;;;;55.35;35.80;;;;;;;1.77;100.00;99991.28;5073186;28;20341;-77
2022/11/29 06:36:41;;;;;;;59.85;35.95;;;;;;;1.72;100.00;99994.72;5072938;28;20367;-76
2022/11/29 06:39:09;;;;;;;57.67;35.70;;;;;;;1.66;100.00;99986.22;5072668;28;20024;-76
2022/11/29 06:41:35;;;;;;;57.13;37.10;;;;;;;1.67;100.00;100004.16;5072945;28;20024;-76
2022/11/29 06:44:00;;;;;;;62.78;39.25;;;;;;;1.68;100.00;100005.00;5072567;28;20027;-77
2022/11/29 06:46:32;;;;;;;64.35;39.80;;;;;;;1.70;100.00;100004.16;5072796;28;20221;-77
2022/11/29 06:49:31;;;;;;;62.42;39.15;;;;;;;1.67;100.00;100001.59;5072501;28;20570;-76
2022/11/29 06:52:18;;;;;;;69.35;43.78;;;;;;;1.66;100.00;100005.03;5072245;28;20028;-77
2022/11/29 06:55:10;;;;;;;59.78;37.05;;;;;;;1.66;100.00;100007.59;5072500;28;20029;-76
2022/11/29 06:58:02;;;;;;;64.07;40.33;;;;;;;1.59;100.00;99989.66;5072548;28;20032;-76
2022/11/29 07:00:47;;;;;;;61.67;38.72;;;;;;;1.58;100.00;100000.78;5078984;28;20471;-76
2022/11/29 07:03:35;;;;;;;56.05;36.33;;;;;;;1.68;100.00;100013.56;5093052;28;20016;-77
2022/11/29 07:06:10;;;;;;;60.08;37.25;;;;;;;1.62;100.00;99997.34;5092450;28;20149;-77
2022/11/29 07:08:37;;;;;;;53.97;35.03;;;;;;;1.71;100.00;100012.72;5092340;28;20035;-77
2022/11/29 07:11:03;;;;;;;56.15;36.00;;;;;;;1.71;100.00;100018.69;5092449;28;20069;-76
2022/11/29 07:13:28;;;;;;;64.30;41.17;;;;;;;1.70;100.00;100013.59;5092430;28;20483;-76
2022/11/29 07:16:15;;;;;;;53.05;35.50;;;;;;;1.74;100.00;100026.41;5092254;28;20056;-76
2022/11/29 07:19:12;;;;;;;59.70;38.20;;;;;;;1.73;100.00;100027.25;5092243;28;20483;-76
2022/11/29 07:22:13;;;;;;;54.40;35.03;;;;;;;1.73;100.00;100013.56;5092744;28;20039;-76
2022/11/29 07:24:54;;;;;;;;;;;;;;;1.73;100.00;100027.25;5092327;28;20065;-76
2022/11/29 07:27:40;;;;;;;55.80;36.35;;;;;;;1.66;100.00;100009.31;5092155;28;20024;-76
2022/11/29 07:30:13;;;;;;;58.38;39.38;;;;;;;1.70;100.00;100014.44;5092357;28;20020;-76
2022/11/29 07:32:47;;;;;;;67.65;41.92;;;;;;;1.73;100.00;100023.84;5092255;28;20115;-76
2022/11/29 07:35:17;;;;;;;81.20;55.17;;;;;;;1.76;100.00;100018.66;5092215;28;20088;-76
2022/11/29 07:37:57;;;;;;;60.33;39.08;;;;;;;1.80;100.00;100024.66;5091828;28;20051;-76
2022/11/29 07:41:05;;;;;;;71.60;44.03;;;;;;;1.69;100.00;100009.31;5092114;28;20355;-76
2022/11/29 07:43:39;;;;;;;56.85;36.40;;;;;;;1.83;100.00;100028.06;5092125;28;20016;-76
2022/11/29 07:46:05;;;;;;;67.70;41.63;;;;;;;1.86;100.00;100028.06;5091714;28;20024;-76
2022/11/29 07:48:30;;;;;;;57.25;37.65;;;;;;;1.82;100.00;100017.81;5092158;28;20384;-76
2022/11/29 07:50:56;;;;;;;60.88;37.42;;;;;;;1.87;100.00;100029.75;5092018;28;20364;-76
2022/11/29 07:53:22;;;;;;;62.50;39.45;;;;;;;1.88;100.00;100023.75;5092103;28;20149;-76
2022/11/29 07:55:48;;;;;;;62.08;37.40;;;;;;;1.94;100.00;100033.16;5091791;28;20024;-76
2022/11/29 07:58:15;;;;;;;57.85;36.75;;;;;;;1.91;100.00;100022.88;5091915;28;20023;-76
2022/11/29 08:00:42;;;;;;;58.33;36.92;;;;;;;2.00;100.00;100035.69;5091812;28;20040;-76
2022/11/29 08:03:08;;;;;;;61.20;38.25;;;;;;;2.00;100.00;100026.25;5092409;28;20024;-76
2022/11/29 08:05:35;;;;;;;59.58;37.17;;;;;;;2.09;100.00;100039.91;5091759;28;20479;-76
2022/11/29 08:08:00;;;;;;;57.40;36.78;;;;;;;1.97;100.00;100015.97;5091727;28;20016;-76
2022/11/29 08:10:25;;;;;;;63.97;41.95;;;;;;;2.12;100.00;100039.91;5073699;28;20479;-76
2022/11/29 08:12:51;;;;;;;67.15;42.03;;;;;;;2.18;100.00;100043.25;5091802;28;20024;-76
2022/11/29 08:15:18;;;;;;;81.75;44.45;;;;;;;2.18;100.00;100034.72;5091761;28;20030;-76
2022/11/29 08:17:44;;;;;;;60.53;39.95;;;;;;;2.17;100.00;100028.72;5091686;28;20017;-76
2022/11/29 08:20:11;;;;;;;64.35;41.03;;;;;;;2.19;100.00;100027.00;5091705;28;20393;-76
2022/11/29 08:22:36;;;;;;;57.67;36.58;;;;;;;2.32;100.00;100043.19;5091759;28;20084;-76
2022/11/29 08:25:02;;;;;;;66.22;39.95;;;;;;;2.29;100.00;100030.34;5091374;28;20052;-76
2022/11/29 08:27:28;;;;;;;57.97;37.30;;;;;;;2.35;100.00;100039.72;5091617;28;20024;-76
2022/11/29 08:29:53;;;;;;;52.78;35.47;;;;;;;2.41;100.00;100040.56;5091301;28;20024;-76
2022/11/29 08:32:18;;;;;;;61.42;39.05;;;;;;;2.44;100.00;100042.22;5091592;28;20031;-76
2022/11/29 08:34:44;;;;;;;67.18;44.60;;;;;;;2.42;100.00;100036.25;5091493;28;20102;-77
2022/11/29 08:37:09;;;;;;;64.30;39.78;;;;;;;2.51;100.00;100036.19;5095306;28;20043;-77
2022/11/29 08:39:34;;;;;;;65.13;39.03;;;;;;;2.55;100.00;100043.03;5095354;28;20059;-77
2022/11/29 08:42:00;;;;;;;73.00;44.47;;;;;;;2.49;100.00;100028.50;5095226;28;20422;-77
2022/11/29 08:44:25;;;;;;;62.40;40.97;;;;;;;2.58;100.00;100039.59;5095090;28;20031;-77
2022/11/29 08:49:34;;;;;;;70.63;41.70;;;;;;;2.65;100.00;100038.66;5095215;28;20031;-77
2022/11/29 08:54:43;;;;;;;62.78;39.85;;;;;;;2.70;100.00;100057.50;5095356;28;20034;-77
2022/11/29 08:57:09;;;;;;;61.78;39.55;;;;;;;2.69;100.00;100054.03;5095041;28;20016;-77
2022/11/29 08:59:35;;;;;;;65.00;40.55;;;;;;;2.66;100.00;100043.78;5095544;28;20028;-77
2022/11/29 09:02:00;;;;;;;68.00;42.78;;;;;;;2.67;100.00;100052.34;5094659;28;20131;-77
2022/11/29 09:04:25;;;;;;;67.70;41.28;;;;;;;2.68;100.00;100049.75;5094938;28;20459;-76
2022/11/29 09:06:51;;;;;;;62.13;39.38;;;;;;;2.74;100.00;100054.88;5095055;28;20085;-77
2022/11/29 09:09:16;;;;;;;71.72;41.80;;;;;;;2.78;100.00;100062.53;5094816;28;20107;-77
2022/11/29 09:11:42;;;;;;;72.25;45.85;;;;;;;2.77;100.00;100059.13;5095075;28;20439;-77
2022/11/29 09:14:13;;;;;;;64.15;43.20;;;;;;;2.77;100.00;100060.84;5094612;28;20024;-77
2022/11/29 09:16:38;;;;;;;;;;;;;;;2.84;100.00;100065.94;5095051;28;20493;-77
2022/11/29 09:19:04;;;;;;;75.60;44.13;;;;;;;2.78;100.00;100053.09;5094215;28;20006;-77
2022/11/29 09:21:31;;;;;;;65.75;42.67;;;;;;;2.84;100.00;100065.94;5094364;28;20104;-77
2022/11/29 09:24:04;;;;;;;62.83;39.85;;;;;;;2.84;100.00;100057.38;5093919;28;20024;-77
2022/11/29 09:26:32;;;;;;;62.28;39.83;;;;;;;2.91;100.00;100062.44;5094542;28;20032;-77
2022/11/29 09:29:02;;;;;;;66.10;42.10;;;;;;;2.93;100.00;100070.16;5094409;28;20415;-77
2022/11/29 09:31:29;;;;;;;71.72;47.45;;;;;;;2.95;100.00;100065.81;5094461;28;20019;-77
2022/11/29 09:33:55;;;;;;;72.72;51.20;;;;;;;2.86;100.00;100058.19;5094021;28;20016;-77
2022/11/29 09:36:21;;;;;;;66.35;44.63;;;;;;;2.88;100.00;100059.91;5094239;28;20077;-77
2022/11/29 09:38:46;;;;;;;64.53;41.58;;;;;;;2.90;100.00;100063.28;5094422;28;20030;-77
2022/11/29 09:41:15;;;;;;;60.92;39.08;;;;;;;2.97;100.00;100076.97;5094088;28;20476;-77
2022/11/29 09:44:10;;;;;;;63.45;41.90;;;;;;;2.91;100.00;100057.31;5094071;28;20371;-77
2022/11/29 09:47:07;;;;;;;68.43;42.25;;;;;;;2.93;100.00;100059.84;5030924;28;20056;-77
2022/11/29 09:49:57;;;;;;;66.50;42.05;;;;;;;3.03;100.00;100070.91;5031636;28;20679;-77
2022/11/29 09:52:23;;;;;;;61.92;40.58;;;;;;;3.07;100.00;100080.31;5031426;28;20473;-77
2022/11/29 09:55:00;;;;;;;60.50;39.88;;;;;;;3.12;100.00;100073.38;5031387;28;20034;-77
2022/11/29 09:57:28;;;;;;;68.82;44.42;;;;;;;3.11;100.00;100064.81;5031223;28;20061;-77
2022/11/29 10:00:00;;;;;;;62.30;41.10;;;;;;;3.14;100.00;100063.94;5030775;28;20025;-77
2022/11/29 10:02:38;;;;;;;68.40;45.17;;;;;;;3.26;100.00;100074.13;5031581;28;20036;-77
2022/11/29 10:05:21;;;;;;;69.55;41.97;;;;;;;3.31;100.00;100076.66;5030889;28;20033;-77
2022/11/29 10:08:07;;;;;;;66.32;41.60;;;;;;;3.36;100.00;100080.03;5031161;28;20108;-77
2022/11/29 10:10:42;;;;;;;62.47;39.05;;;;;;;3.38;100.00;100073.16;5030756;28;20033;-77
2022/11/29 10:13:33;;;;;;;64.50;40.50;;;;;;;3.37;100.00;100063.69;5030783;28;20034;-77
2022/11/29 10:16:08;;;;;;;69.93;43.08;;;;;;;3.44;100.00;100073.06;5030754;28;20484;-77
2022/11/29 10:18:43;;;;;;;56.95;38.00;;;;;;;3.44;100.00;100073.06;5030978;28;20029;-77
2022/11/29 10:21:13;;;;;;;64.13;41.38;;;;;;;3.44;100.00;100060.19;5030726;28;20033;-77
2022/11/29 10:23:52;;;;;;;62.15;41.30;;;;;;;3.46;100.00;100067.03;5062837;28;20036;-77
2022/11/29 10:26:19;;;;;;;55.95;37.80;;;;;;;3.59;100.00;100072.91;5093152;28;20052;-77
2022/11/29 10:28:47;;;;;;;59.17;37.17;;;;;;;3.60;100.00;100074.63;5093425;28;20016;-77
2022/11/29 10:31:27;;;;;;;538.67;344.20;;;;;;;3.62;100.00;100074.59;5093012;28;20467;-77
2022/11/29 10:33:56;;;;;;;71.85;45.70;;;;;;;3.60;100.00;100064.31;5093307;28;20032;-77
2022/11/29 10:36:49;;;;;;;62.00;39.40;;;;;;;3.71;100.00;100079.66;5093488;28;20367;-77
2022/11/29 10:39:38;;;;;;;66.80;42.08;;;;;;;3.66;100.00;100063.38;5093124;28;20020;-77
2022/11/29 10:42:47;;;;;;;61.70;41.90;;;;;;;3.68;100.00;100064.22;5092957;28;20028;-77
2022/11/29 10:44:50;;;;;;;511.70;269.70;;;;;;;3.75;100.00;100071.03;5092297;28;20032;-77
2022/11/29 10:47:15;;;;;;;82.25;47.63;;;;;;;3.70;100.00;100068.47;5092649;28;20092;-77
2022/11/29 10:49:41;;;;;;;65.13;43.05;;;;;;;3.72;100.00;100069.31;5092843;28;20020;-77
2022/11/29 10:52:18;;;;;;;59.13;38.15;;;;;;;3.78;100.00;100070.09;5092796;28;20024;-77
2022/11/29 10:54:45;;;;;;;59.08;35.75;;;;;;;3.75;100.00;100058.13;5092941;28;20051;-77
2022/11/29 10:57:16;;;;;;;75.97;45.03;;;;;;;3.86;100.00;100065.72;5092378;28;20020;-77
2022/11/29 10:59:58;;;;;;;62.92;39.58;;;;;;;3.85;100.00;100064.88;5092106;28;20028;-77
2022/11/29 11:02:24;;;;;;;59.08;37.83;;;;;;;3.92;100.00;100070.81;5092873;28;20111;-77
2022/11/29 11:04:49;;;;;;;58.20;38.88;;;;;;;3.94;100.00;100064.75;5092667;28;20103;-77
2022/11/29 11:07:41;;;;;;;53.60;36.80;;;;;;;3.94;100.00;100069.03;5092341;28;20023;-77
2022/11/29 11:10:25;;;;;;;64.45;41.53;;;;;;;3.93;100.00;100070.78;4990389;28;20120;-77
2022/11/29 11:13:17;;;;;;;66.05;40.83;;;;;;;3.91;100.00;100069.09;4990739;28;20109;-77
2022/11/29 11:15:43;;;;;;;63.97;41.55;;;;;;;3.83;100.00;100058.88;4974342;28;20045;-77
2022/11/29 11:18:19;;;;;;;58.13;40.95;;;;;;;3.83;100.00;100058.88;4990365;28;20046;-77
2022/11/29 11:20:52;;;;;;;65.85;41.95;;;;;;;3.83;100.00;100061.44;4990501;28;20033;-77
2022/11/29 11:23:31;;;;;;;62.72;39.45;;;;;;;3.87;100.00;100070.84;4990290;28;20033;-77
2022/11/29 11:26:03;;;;;;;66.78;44.35;;;;;;;3.88;100.00;100072.56;4990371;28;20029;-77
2022/11/29 11:28:35;;;;;;;71.72;46.50;;;;;;;3.87;100.00;100068.25;4990540;28;20133;-77
2022/11/29 11:31:05;;;;;;;69.35;43.38;;;;;;;3.85;100.00;100062.28;4990177;28;20049;-77
2022/11/29 11:33:34;;;;;;;70.47;44.55;;;;;;;3.83;100.00;100070.91;4990245;28;20219;-77
2022/11/29 11:36:07;;;;;;;66.70;42.28;;;;;;;3.78;100.00;100068.38;4990069;28;20063;-77
2022/11/29 11:38:57;;;;;;;62.33;39.20;;;;;;;3.76;100.00;100070.13;4990289;28;20023;-77
2022/11/29 11:41:22;;;;;;;63.93;43.43;;;;;;;3.79;100.00;100069.22;4990242;28;20505;-77
2022/11/29 11:43:51;;;;;;;64.95;41.63;;;;;;;3.72;100.00;100066.75;4990292;28;20057;-77
2022/11/29 11:46:17;;;;;;;58.95;38.85;;;;;;;3.68;100.00;100057.34;5014405;28;20039;-77
2022/11/29 11:48:42;;;;;;;63.25;41.30;;;;;;;3.75;100.00;100074.44;5092291;28;20373;-77
2022/11/29 11:51:24;;;;;;;63.42;37.83;;;;;;;3.73;100.00;100071.00;5091847;28;20024;-77
2022/11/29 11:53:53;;;;;;;62.45;39.75;;;;;;;3.68;100.00;100059.06;5092042;28;20016;-77
2022/11/29 11:56:19;;;;;;;71.88;45.78;;;;;;;3.73;100.00;100080.47;5091924;28;20030;-77
2022/11/29 11:58:47;;;;;;;72.28;45.25;;;;;;;3.74;100.00;100074.44;5092341;28;20118;-77